メインページ
METAR-TAF:

METAR-TAF

空港 :

ウアリ・ブーメディアン空港

アルジェ, アルジェリア

緯度: 36-43N, 経度: 003-15E, 海抜: 25m

現時点の気象観測

当レポートは16分前の06:00(UTC)に作成
南西の風 2kt
気温 16°C
湿度 94%
気圧 1018 hPa
視程: 7000m
高度2000ftの雲はほとんどない

METAR: DAAG 220600Z 23002KT 7000 FEW020 16/15 Q1018

時間: 07:16 (06:16 UTC)

予報

当レポートは1時間16分前の05:00(UTC)に作成
予報は22日の 06時(UTC)から 23日の 06時(UTC)まで有効
変向風 2kt
視程: 8000m
高度2000ftの雲はほとんどない
高度8000ftの雲は散在している
確率 30% :
22日の 06時(UTC)から 22日の 08時(UTC)まで一時的に
視程: 4000m
高度1500ftの千切れ雲あり
22日の 09時(UTC)から 22日の 12時(UTC)まで徐々に
の風 10kt
22日の 10時(UTC)から 22日の 18時(UTC)まで一時的に
高度2300ftの雲はほとんどない, 塔状積雲.
22日の 18時(UTC)から 22日の 21時(UTC)まで徐々に
変向風 2kt
確率 30% :
23日の 02時(UTC)から 23日の 06時(UTC)まで一時的に
視程: 4000m
高度1500ftの千切れ雲あり

TAF: DAAG 220500Z 2206/2306 VRB02KT 8000 FEW020 SCT080 PROB30 TEMPO 2206/2208 4000 BR BKN015 BECMG 2209/2212 36010KT TEMPO 2210/2218 FEW023TCU BECMG 2218/2221 VRB02KT PROB30 TEMPO 2302/2306 4000 BR BKN015

4,000以上の空港の気象観測と天気予報(METAR報とTAF報)

利用可能な観測所は地図上に黄色い丸と赤い丸で示す。

丸の上にカーソルを重ねると観測所名を参照できる。

次にクリックすると気象観測と天気予報を参照できる。

マップの切り替え:黒色「×」印の緑ボタンをクリックして拡大、「-」印の緑ボタンをクリックして縮小、緑色の三角印をクリックして隣りの地図に切り替え


METAR-TAF: